createdAt,value
2019-05-01T00:00:26.586Z,48.00
2019-05-01T00:01:26.562Z,50.10
2019-05-01T00:02:26.534Z,44.10
2019-05-01T00:03:26.508Z,46.00
2019-05-01T00:04:26.484Z,48.00
2019-05-01T00:05:26.456Z,44.30
2019-05-01T00:06:26.430Z,50.70
2019-05-01T00:07:26.405Z,45.50
2019-05-01T00:08:26.379Z,47.70
2019-05-01T00:09:26.355Z,49.30
2019-05-01T00:10:26.327Z,47.30
2019-05-01T00:11:26.300Z,46.30
2019-05-01T00:12:26.275Z,49.40
2019-05-01T00:13:26.249Z,48.70
2019-05-01T00:14:26.224Z,46.00
2019-05-01T00:15:26.203Z,46.20
2019-05-01T00:16:26.172Z,46.00
2019-05-01T00:17:27.777Z,44.30
2019-05-01T00:18:26.118Z,50.20
2019-05-01T00:19:26.092Z,46.80
2019-05-01T00:20:26.067Z,47.40
2019-05-01T00:21:26.039Z,49.80
2019-05-01T00:22:26.014Z,50.90
2019-05-01T00:23:25.990Z,48.70
2019-05-01T00:24:25.962Z,49.70
2019-05-01T00:25:25.936Z,48.30
2019-05-01T00:26:25.909Z,47.10
2019-05-01T00:27:25.883Z,47.70
2019-05-01T00:28:25.861Z,54.20
2019-05-01T00:29:25.830Z,52.80
2019-05-01T00:30:30.065Z,50.30
2019-05-01T00:31:25.778Z,53.10
2019-05-01T00:32:25.751Z,50.90
2019-05-01T00:33:25.729Z,53.40
2019-05-01T00:34:25.700Z,54.70
2019-05-01T00:35:25.672Z,55.30
2019-05-01T00:36:25.646Z,58.30
2019-05-01T00:37:25.617Z,51.50
2019-05-01T00:38:25.592Z,53.00
2019-05-01T00:39:25.567Z,57.80
2019-05-01T00:40:25.541Z,55.10
2019-05-01T00:41:25.512Z,57.10
2019-05-01T00:42:25.486Z,56.60
2019-05-01T00:43:25.462Z,61.80
2019-05-01T00:44:25.433Z,56.60
2019-05-01T00:45:25.409Z,56.80
2019-05-01T00:46:25.379Z,60.70
2019-05-01T00:47:25.353Z,60.80
2019-05-01T00:48:25.329Z,61.40
2019-05-01T00:49:25.299Z,59.10
2019-05-01T00:50:25.272Z,61.00
2019-05-01T00:51:25.245Z,62.50
2019-05-01T00:52:25.219Z,61.40
2019-05-01T00:53:25.191Z,61.50
2019-05-01T00:54:25.165Z,65.00
2019-05-01T00:55:25.139Z,65.10
2019-05-01T00:56:25.110Z,60.80
2019-05-01T00:57:25.086Z,65.30
2019-05-01T00:58:25.057Z,65.00
2019-05-01T00:59:25.032Z,66.40
2019-05-01T01:00:25.003Z,69.50
2019-05-01T01:01:24.975Z,69.30
2019-05-01T01:02:24.948Z,64.00
2019-05-01T01:03:24.923Z,68.30
2019-05-01T01:04:24.893Z,67.30
2019-05-01T01:05:24.866Z,72.00
2019-05-01T01:06:24.842Z,77.10
2019-05-01T01:07:24.813Z,71.90
2019-05-01T01:08:24.787Z,70.20
2019-05-01T01:09:24.760Z,69.70
2019-05-01T01:10:24.730Z,75.10
2019-05-01T01:11:24.704Z,76.10
2019-05-01T01:12:24.676Z,73.60
2019-05-01T01:13:24.651Z,75.30
2019-05-01T01:14:24.622Z,77.10
2019-05-01T01:15:24.595Z,73.50
2019-05-01T01:16:24.567Z,78.90
2019-05-01T01:17:24.539Z,76.80
2019-05-01T01:18:24.513Z,75.00
2019-05-01T01:19:24.538Z,78.30
2019-05-01T01:20:24.458Z,78.10
2019-05-01T01:21:24.430Z,76.00
2019-05-01T01:22:24.402Z,76.70
2019-05-01T01:23:24.375Z,79.10
2019-05-01T01:24:24.348Z,78.70
2019-05-01T01:25:24.319Z,77.10
2019-05-01T01:26:24.291Z,77.40
2019-05-01T01:27:24.265Z,75.20
2019-05-01T01:28:24.238Z,76.10
2019-05-01T01:29:24.209Z,73.50
2019-05-01T01:30:24.182Z,78.80
2019-05-01T01:31:24.155Z,84.50
2019-05-01T01:32:24.128Z,81.20
2019-05-01T01:33:24.100Z,82.10
2019-05-01T01:34:24.072Z,80.90
2019-05-01T01:35:24.045Z,77.90
2019-05-01T01:36:24.017Z,78.20
2019-05-01T01:37:23.991Z,80.20
2019-05-01T01:38:23.962Z,80.70
2019-05-01T01:39:23.934Z,82.10
2019-05-01T01:40:23.908Z,82.60
2019-05-01T01:41:23.879Z,82.90
2019-05-01T01:42:23.851Z,80.60
2019-05-01T01:43:23.828Z,82.40
2019-05-01T01:44:23.795Z,83.00
2019-05-01T01:45:23.769Z,83.60
2019-05-01T01:46:23.740Z,89.90
2019-05-01T01:47:23.713Z,85.10
2019-05-01T01:48:23.686Z,86.00
2019-05-01T01:49:23.656Z,86.10
2019-05-01T01:50:23.629Z,92.30
2019-05-01T01:51:23.602Z,90.70
2019-05-01T01:52:23.574Z,87.50
2019-05-01T01:53:23.547Z,95.60
2019-05-01T01:54:23.519Z,91.20
2019-05-01T01:55:23.491Z,87.20
2019-05-01T01:56:23.463Z,96.50
2019-05-01T01:57:23.434Z,92.70
2019-05-01T01:58:23.407Z,90.10
2019-05-01T01:59:23.383Z,91.60
2019-05-01T02:00:23.354Z,93.30
2019-05-01T02:01:23.323Z,90.90
2019-05-01T02:02:23.296Z,96.20
2019-05-01T02:03:23.269Z,93.80
2019-05-01T02:04:23.241Z,97.70
2019-05-01T02:05:23.212Z,94.30
2019-05-01T02:06:23.338Z,96.20
2019-05-01T02:07:23.158Z,95.30
2019-05-01T02:08:23.130Z,89.90
2019-05-01T02:09:23.102Z,91.20
2019-05-01T02:10:23.178Z,94.20
2019-05-01T02:11:23.046Z,93.60
2019-05-01T02:12:23.020Z,86.60
2019-05-01T02:13:22.989Z,95.80
2019-05-01T02:14:22.962Z,89.10
2019-05-01T02:15:22.936Z,92.30
2019-05-01T02:16:22.913Z,89.60
2019-05-01T02:17:22.879Z,87.60
2019-05-01T02:18:22.858Z,87.80
2019-05-01T02:19:22.825Z,86.70
2019-05-01T02:20:22.796Z,87.40
2019-05-01T02:21:22.768Z,85.10
2019-05-01T02:22:22.740Z,86.30
2019-05-01T02:23:22.713Z,84.00
2019-05-01T02:24:22.692Z,87.50
2019-05-01T02:25:22.660Z,84.50
2019-05-01T02:26:22.632Z,83.20
2019-05-01T02:27:22.602Z,90.00
2019-05-01T02:28:22.575Z,90.70
2019-05-01T02:29:22.545Z,89.80
2019-05-01T02:30:22.519Z,93.50
2019-05-01T02:31:28.538Z,92.50
2019-05-01T02:32:22.464Z,88.00
2019-05-01T02:33:22.437Z,85.90
2019-05-01T02:34:22.409Z,84.30
2019-05-01T02:35:22.382Z,87.40
2019-05-01T02:36:22.352Z,88.40
2019-05-01T02:37:22.325Z,90.50
2019-05-01T02:38:22.308Z,90.80
2019-05-01T02:39:22.270Z,85.80
2019-05-01T02:40:22.248Z,87.80
2019-05-01T02:41:22.214Z,89.60
2019-05-01T02:42:22.204Z,86.20
2019-05-01T02:43:22.161Z,87.70
2019-05-01T02:44:22.134Z,85.90
2019-05-01T02:45:22.108Z,87.70
2019-05-01T02:46:22.076Z,87.70
2019-05-01T02:47:22.050Z,87.70
2019-05-01T02:48:22.024Z,86.10
2019-05-01T02:49:21.994Z,88.50
2019-05-01T02:50:21.969Z,86.70
2019-05-01T02:51:21.941Z,90.50
2019-05-01T02:52:21.912Z,83.90
2019-05-01T02:53:21.884Z,89.20
2019-05-01T02:54:21.856Z,81.40
2019-05-01T02:55:21.831Z,83.90
2019-05-01T02:56:21.802Z,81.20
2019-05-01T02:57:21.772Z,85.30
2019-05-01T02:58:21.745Z,83.70
2019-05-01T02:59:21.725Z,84.30
2019-05-01T03:00:21.712Z,85.10
2019-05-01T03:01:21.663Z,81.70
2019-05-01T03:02:21.635Z,79.50
2019-05-01T03:03:21.608Z,76.30
2019-05-01T03:04:21.581Z,80.40
2019-05-01T03:05:21.553Z,78.40
2019-05-01T03:06:21.531Z,81.50
2019-05-01T03:07:21.500Z,78.30
2019-05-01T03:08:21.470Z,80.00
2019-05-01T03:09:21.442Z,83.30
2019-05-01T03:10:21.414Z,80.30
2019-05-01T03:11:21.390Z,78.00
2019-05-01T03:12:21.360Z,80.90
2019-05-01T03:13:21.332Z,78.60
2019-05-01T03:14:21.304Z,82.10
2019-05-01T03:15:21.281Z,77.20
2019-05-01T03:16:21.251Z,81.70
2019-05-01T03:17:21.222Z,77.70
2019-05-01T03:18:21.195Z,78.30
2019-05-01T03:19:21.171Z,74.30
2019-05-01T03:20:21.139Z,77.90
2019-05-01T03:21:21.112Z,76.00
2019-05-01T03:22:21.084Z,74.70
2019-05-01T03:23:21.059Z,80.30
2019-05-01T03:24:21.030Z,74.20
2019-05-01T03:25:21.002Z,76.00
2019-05-01T03:26:20.975Z,74.00
2019-05-01T03:27:20.948Z,70.80
2019-05-01T03:28:20.922Z,70.20
2019-05-01T03:29:20.895Z,67.90
2019-05-01T03:30:20.869Z,68.80
2019-05-01T03:31:20.843Z,67.10
2019-05-01T03:32:20.814Z,68.90
2019-05-01T03:33:20.784Z,73.30
2019-05-01T03:34:20.769Z,72.70
2019-05-01T03:35:20.729Z,71.20
2019-05-01T03:36:20.701Z,67.50
2019-05-01T03:37:20.681Z,68.60
2019-05-01T03:38:20.654Z,70.30
2019-05-01T03:39:20.618Z,63.20
2019-05-01T03:40:20.592Z,67.30
2019-05-01T03:41:20.564Z,66.30
2019-05-01T03:42:20.536Z,66.20
2019-05-01T03:43:20.515Z,68.30
2019-05-01T03:44:20.483Z,66.30
2019-05-01T03:45:20.455Z,68.90
2019-05-01T03:46:20.427Z,62.50
2019-05-01T03:47:20.401Z,62.60
2019-05-01T03:48:20.384Z,64.30
2019-05-01T03:49:20.345Z,63.00
2019-05-01T03:50:20.317Z,66.20
2019-05-01T03:51:20.289Z,67.20
2019-05-01T03:52:20.265Z,64.70
2019-05-01T03:53:20.239Z,60.70
2019-05-01T03:54:20.209Z,68.00
2019-05-01T03:55:20.182Z,65.10
2019-05-01T03:56:20.155Z,64.40
2019-05-01T03:57:20.127Z,61.80
2019-05-01T03:58:20.100Z,58.40
2019-05-01T03:59:20.071Z,61.30
2019-05-01T04:00:20.055Z,62.20
2019-05-01T04:01:20.019Z,62.40
2019-05-01T04:02:32.785Z,62.40
2019-05-01T04:03:19.964Z,62.30
2019-05-01T04:04:19.936Z,61.60
2019-05-01T04:05:19.909Z,67.00
2019-05-01T04:06:19.883Z,62.50
2019-05-01T04:07:19.855Z,62.00
2019-05-01T04:08:19.841Z,58.00
2019-05-01T04:09:19.798Z,58.90
2019-05-01T04:10:19.773Z,64.10
2019-05-01T04:11:19.744Z,57.50
2019-05-01T04:12:19.718Z,61.70
2019-05-01T04:13:19.691Z,58.70
2019-05-01T04:14:19.668Z,57.50
2019-05-01T04:15:19.636Z,61.30
2019-05-01T04:16:19.609Z,53.30
2019-05-01T04:17:19.581Z,56.60
2019-05-01T04:18:19.554Z,56.90
2019-05-01T04:19:19.526Z,59.90
2019-05-01T04:20:19.501Z,57.90
2019-05-01T04:21:19.473Z,52.30
2019-05-01T04:22:19.444Z,52.60
2019-05-01T04:23:19.418Z,55.30
2019-05-01T04:24:19.402Z,52.40
2019-05-01T04:25:19.368Z,55.30
2019-05-01T04:26:19.336Z,53.50
2019-05-01T04:27:19.310Z,53.40
2019-05-01T04:28:19.280Z,48.40
2019-05-01T04:29:19.255Z,51.70
2019-05-01T04:30:19.228Z,54.40
2019-05-01T04:31:19.201Z,53.10
2019-05-01T04:32:19.175Z,53.90
2019-05-01T04:33:19.146Z,48.70
2019-05-01T04:34:19.117Z,48.30
2019-05-01T04:35:19.092Z,48.50
2019-05-01T04:36:19.063Z,48.10
2019-05-01T04:37:19.033Z,49.50
2019-05-01T04:38:19.005Z,47.30
2019-05-01T04:39:18.979Z,48.70
2019-05-01T04:40:19.386Z,48.70
2019-05-01T04:41:18.926Z,44.40
2019-05-01T04:42:18.897Z,48.60
2019-05-01T04:43:18.868Z,46.20
2019-05-01T04:44:18.842Z,45.00
2019-05-01T04:45:18.814Z,47.20
2019-05-01T04:46:18.787Z,47.20
2019-05-01T04:47:18.761Z,45.20
2019-05-01T04:48:18.732Z,44.40
2019-05-01T04:49:18.705Z,47.40
2019-05-01T04:50:18.683Z,48.80
2019-05-01T04:51:18.653Z,48.00
2019-05-01T04:52:18.625Z,43.40
2019-05-01T04:53:18.593Z,45.30
2019-05-01T04:54:18.568Z,45.10
2019-05-01T04:55:18.542Z,46.40
2019-05-01T04:56:18.512Z,47.80
2019-05-01T04:57:18.486Z,47.80
2019-05-01T04:58:18.459Z,43.50
2019-05-01T04:59:18.432Z,45.90
2019-05-01T05:00:18.405Z,44.70
2019-05-01T05:01:18.376Z,47.10
2019-05-01T05:02:18.370Z,48.90
2019-05-01T05:03:18.325Z,44.70
2019-05-01T05:04:18.306Z,44.50
2019-05-01T05:05:18.277Z,45.90
2019-05-01T05:06:18.241Z,46.20
2019-05-01T05:07:18.214Z,50.70
2019-05-01T05:08:18.188Z,45.80
2019-05-01T05:09:18.160Z,43.80
2019-05-01T05:10:18.131Z,46.10
2019-05-01T05:11:18.107Z,44.50
2019-05-01T05:12:18.078Z,44.60
2019-05-01T05:13:18.051Z,44.90
2019-05-01T05:14:18.023Z,44.10
2019-05-01T05:15:17.996Z,46.90
2019-05-01T05:16:17.970Z,47.90
2019-05-01T05:17:17.940Z,49.20
2019-05-01T05:18:17.916Z,48.90
2019-05-01T05:19:17.891Z,47.40
2019-05-01T05:20:17.861Z,48.60
2019-05-01T05:21:17.833Z,46.00
2019-05-01T05:22:17.805Z,45.10
2019-05-01T05:23:17.779Z,46.10
2019-05-01T05:24:17.753Z,49.50
2019-05-01T05:25:17.724Z,49.20
2019-05-01T05:26:17.697Z,43.90
2019-05-01T05:27:17.671Z,44.60
2019-05-01T05:28:17.649Z,45.90
2019-05-01T05:29:17.617Z,46.50
2019-05-01T05:30:17.591Z,46.40
2019-05-01T05:31:17.563Z,41.40
2019-05-01T05:32:17.536Z,41.50
2019-05-01T05:33:18.797Z,40.90
2019-05-01T05:34:18.220Z,42.20
2019-05-01T05:35:17.454Z,38.90
2019-05-01T05:36:17.428Z,40.30
2019-05-01T05:37:17.399Z,40.70
2019-05-01T05:38:17.374Z,41.80
2019-05-01T05:39:17.346Z,38.30
2019-05-01T05:40:17.321Z,37.50
2019-05-01T05:41:17.292Z,38.10
2019-05-01T05:42:17.266Z,35.60
2019-05-01T05:43:17.238Z,35.40
2019-05-01T05:44:17.212Z,34.70
2019-05-01T05:45:17.184Z,36.30
2019-05-01T05:46:17.157Z,37.60
2019-05-01T05:47:17.130Z,35.40
2019-05-01T05:48:17.107Z,35.10
2019-05-01T05:49:17.078Z,32.60
2019-05-01T05:50:17.052Z,35.60
2019-05-01T05:51:17.024Z,34.90
2019-05-01T05:52:16.998Z,32.80
2019-05-01T05:53:16.970Z,33.60
2019-05-01T05:54:16.944Z,33.70
2019-05-01T05:55:16.918Z,33.60
2019-05-01T05:56:16.891Z,31.40
2019-05-01T05:57:16.865Z,31.10
2019-05-01T05:58:16.839Z,31.40
2019-05-01T05:59:16.815Z,32.50
2019-05-01T06:00:16.786Z,31.20
2019-05-01T06:01:16.760Z,32.20
2019-05-01T06:02:16.732Z,31.40
2019-05-01T06:03:16.706Z,31.50
2019-05-01T06:04:16.680Z,30.40
2019-05-01T06:05:16.653Z,33.20
2019-05-01T06:06:16.629Z,28.20
2019-05-01T06:07:16.601Z,28.60
2019-05-01T06:08:16.574Z,27.20
2019-05-01T06:09:16.547Z,28.70
2019-05-01T06:10:18.445Z,30.50
2019-05-01T06:11:16.496Z,29.70
2019-05-01T06:12:16.468Z,29.60
2019-05-01T06:13:17.871Z,27.30
2019-05-01T06:14:16.416Z,29.70
2019-05-01T06:15:16.392Z,29.50
2019-05-01T06:16:17.411Z,26.60
2019-05-01T06:17:16.338Z,28.10
2019-05-01T06:18:16.313Z,26.50
2019-05-01T06:19:16.404Z,25.80
2019-05-01T06:20:16.261Z,26.40
2019-05-01T06:21:16.236Z,25.40
2019-05-01T06:22:16.209Z,27.20
2019-05-01T06:23:20.616Z,30.60
2019-05-01T06:24:16.157Z,28.30
2019-05-01T06:25:22.740Z,25.90
2019-05-01T06:26:16.118Z,28.10
2019-05-01T06:27:16.080Z,26.90
2019-05-01T06:28:19.955Z,29.40
2019-05-01T06:29:16.031Z,25.60
2019-05-01T06:30:16.005Z,26.30
2019-05-01T06:31:17.653Z,24.90
2019-05-01T06:32:15.954Z,27.10
2019-05-01T06:33:15.929Z,27.20
2019-05-01T06:34:15.903Z,23.50
2019-05-01T06:35:15.878Z,24.10
2019-05-01T06:36:15.853Z,24.30
2019-05-01T06:37:15.826Z,21.60
2019-05-01T06:38:15.804Z,23.50
2019-05-01T06:39:15.777Z,26.30
2019-05-01T06:40:18.730Z,22.80
2019-05-01T06:41:15.726Z,22.30
2019-05-01T06:42:16.926Z,22.10
2019-05-01T06:43:15.674Z,24.50
2019-05-01T06:44:15.647Z,23.30
2019-05-01T06:45:16.863Z,25.30
2019-05-01T06:46:15.597Z,22.80
2019-05-01T06:47:15.572Z,22.50
2019-05-01T06:48:17.829Z,22.70
2019-05-01T06:49:15.524Z,23.60
2019-05-01T06:50:15.495Z,22.70
2019-05-01T06:51:17.695Z,23.40
2019-05-01T06:52:15.444Z,20.90
2019-05-01T06:53:15.433Z,26.40
2019-05-01T06:54:16.516Z,21.70
2019-05-01T06:55:15.369Z,23.80
2019-05-01T06:56:15.343Z,20.70
2019-05-01T06:57:15.318Z,19.00
2019-05-01T06:58:20.536Z,19.60
2019-05-01T06:59:15.266Z,22.40
2019-05-01T07:00:15.241Z,19.80
2019-05-01T07:01:19.225Z,20.20
2019-05-01T07:02:16.080Z,19.20
2019-05-01T07:03:15.168Z,20.80
2019-05-01T07:04:15.140Z,20.50
2019-05-01T07:05:16.475Z,19.20
2019-05-01T07:06:15.090Z,19.20
2019-05-01T07:07:25.045Z,21.00
2019-05-01T07:08:24.374Z,18.90
2019-05-01T07:09:27.467Z,21.00
2019-05-01T07:10:14.990Z,17.60
2019-05-01T07:11:15.513Z,18.60
2019-05-01T07:12:14.940Z,19.50
2019-05-01T07:13:14.915Z,16.80
2019-05-01T07:14:16.426Z,21.60
2019-05-01T07:15:14.866Z,15.60
2019-05-01T07:16:14.841Z,16.00
2019-05-01T07:17:14.920Z,20.60
2019-05-01T07:18:18.828Z,17.20
2019-05-01T07:19:14.768Z,18.70
2019-05-01T07:20:16.923Z,16.40
2019-05-01T07:21:14.717Z,18.00
2019-05-01T07:22:14.693Z,15.90
2019-05-01T07:23:17.334Z,15.70
2019-05-01T07:24:14.647Z,16.50
2019-05-01T07:25:14.620Z,17.10
2019-05-01T07:26:14.835Z,18.50
2019-05-01T07:27:14.570Z,17.20
2019-05-01T07:28:14.546Z,18.10
2019-05-01T07:29:14.521Z,18.30
2019-05-01T07:30:15.853Z,18.60
2019-05-01T07:31:14.475Z,16.90
2019-05-01T07:32:15.133Z,17.40
2019-05-01T07:33:16.622Z,16.00
2019-05-01T07:34:16.779Z,15.10
2019-05-01T07:35:14.375Z,16.50
2019-05-01T07:36:16.280Z,17.00
2019-05-01T07:37:14.326Z,14.70
2019-05-01T07:38:14.304Z,15.40
2019-05-01T07:39:15.806Z,18.20
2019-05-01T07:40:14.253Z,17.80
2019-05-01T07:41:14.231Z,18.00
2019-05-01T07:42:14.210Z,15.30
2019-05-01T07:43:14.183Z,15.20
2019-05-01T07:44:14.162Z,16.20
2019-05-01T07:45:14.133Z,17.00
2019-05-01T07:46:18.344Z,17.70
2019-05-01T07:47:14.088Z,16.60
2019-05-01T07:48:14.063Z,17.50
2019-05-01T07:49:17.714Z,19.50
2019-05-01T07:50:14.015Z,19.00
2019-05-01T07:51:13.991Z,17.90
2019-05-01T07:52:17.284Z,16.70
2019-05-01T07:53:13.944Z,15.70
2019-05-01T07:54:13.957Z,19.20
2019-05-01T07:55:18.216Z,18.00
2019-05-01T07:56:13.877Z,17.60
2019-05-01T07:57:13.850Z,18.10
2019-05-01T07:58:15.985Z,18.30
2019-05-01T07:59:13.803Z,15.80
2019-05-01T08:00:13.779Z,16.10
2019-05-01T08:01:18.218Z,17.40
2019-05-01T08:02:13.735Z,15.20
2019-05-01T08:03:13.709Z,16.50
2019-05-01T08:04:18.010Z,15.60
2019-05-01T08:05:13.665Z,17.50
2019-05-01T08:06:16.085Z,17.20
2019-05-01T08:07:13.616Z,14.60
2019-05-01T08:08:13.595Z,15.70
2019-05-01T08:09:15.247Z,15.60
2019-05-01T08:10:13.563Z,17.40
2019-05-01T08:11:13.524Z,14.70
2019-05-01T08:12:14.428Z,15.10
2019-05-01T08:13:13.476Z,16.90
2019-05-01T08:14:16.664Z,20.30
2019-05-01T08:15:13.434Z,18.60
2019-05-01T08:16:13.411Z,14.70
2019-05-01T08:17:17.974Z,18.30
2019-05-01T08:18:13.362Z,17.30
2019-05-01T08:19:13.336Z,15.70
2019-05-01T08:20:14.900Z,18.20
2019-05-01T08:21:13.288Z,16.00
2019-05-01T08:22:13.266Z,17.60
2019-05-01T08:23:13.756Z,15.10
2019-05-01T08:24:13.217Z,15.60
2019-05-01T08:25:13.192Z,16.90
2019-05-01T08:26:13.171Z,17.50
2019-05-01T08:27:15.685Z,17.40
2019-05-01T08:28:13.124Z,15.10
2019-05-01T08:29:13.098Z,18.00
2019-05-01T08:30:17.507Z,15.50
2019-05-01T08:31:13.051Z,14.50
2019-05-01T08:32:13.027Z,17.50
2019-05-01T08:33:14.540Z,15.80
2019-05-01T08:34:12.980Z,13.30
2019-05-01T08:35:12.959Z,16.50
2019-05-01T08:36:13.518Z,13.60
2019-05-01T08:37:12.907Z,14.10
2019-05-01T08:38:12.885Z,12.90
2019-05-01T08:39:13.956Z,14.10
2019-05-01T08:40:15.834Z,16.60
2019-05-01T08:41:12.814Z,15.00
2019-05-01T08:42:12.811Z,14.30
2019-05-01T08:43:13.698Z,16.10
2019-05-01T08:44:12.745Z,16.50
2019-05-01T08:45:12.721Z,13.70
2019-05-01T08:46:16.594Z,13.70
2019-05-01T08:47:12.677Z,12.10
2019-05-01T08:48:12.654Z,12.80
2019-05-01T08:49:12.710Z,13.40
2019-05-01T08:50:12.605Z,13.30
2019-05-01T08:51:12.584Z,13.10
2019-05-01T08:52:13.972Z,11.10
2019-05-01T08:53:12.538Z,13.00
2019-05-01T08:54:12.517Z,14.60
2019-05-01T08:55:12.491Z,12.90
2019-05-01T08:56:12.470Z,13.40
2019-05-01T08:57:12.446Z,15.20
2019-05-01T08:58:13.933Z,11.20
2019-05-01T08:59:12.401Z,12.10
2019-05-01T09:00:12.380Z,11.50
2019-05-01T09:01:14.964Z,11.90
2019-05-01T09:02:12.335Z,12.10
2019-05-01T09:03:13.611Z,11.80
2019-05-01T09:04:13.386Z,13.60
2019-05-01T09:05:27.737Z,12.30
2019-05-01T09:06:12.251Z,13.40
2019-05-01T09:07:14.709Z,10.70
2019-05-01T09:08:12.204Z,12.20
2019-05-01T09:09:12.181Z,10.60
2019-05-01T09:10:12.162Z,12.10
2019-05-01T09:11:12.140Z,10.50
2019-05-01T09:12:13.563Z,9.20
2019-05-01T09:13:12.095Z,9.90
2019-05-01T09:14:12.072Z,11.10
2019-05-01T09:15:13.058Z,9.30
2019-05-01T09:16:12.031Z,8.90
2019-05-01T09:17:12.010Z,9.40
2019-05-01T09:18:11.988Z,7.70
2019-05-01T09:19:11.967Z,8.20
2019-05-01T09:20:11.948Z,9.10
2019-05-01T09:21:11.928Z,11.80
2019-05-01T09:22:11.909Z,10.30
2019-05-01T09:23:14.339Z,7.90
2019-05-01T09:24:11.871Z,9.10
2019-05-01T09:25:11.849Z,9.60
2019-05-01T09:26:15.916Z,8.80
2019-05-01T09:27:11.806Z,8.50
2019-05-01T09:28:11.787Z,8.40
2019-05-01T09:29:16.026Z,8.30
2019-05-01T09:30:11.746Z,9.20
2019-05-01T09:31:11.727Z,10.30
2019-05-01T09:32:11.987Z,8.40
2019-05-01T09:33:11.685Z,7.60
2019-05-01T09:34:14.015Z,8.80
2019-05-01T09:35:15.895Z,9.30
2019-05-01T09:36:11.626Z,8.60
2019-05-01T09:37:11.604Z,8.90
2019-05-01T09:38:11.584Z,9.30
2019-05-01T09:39:11.566Z,9.60
2019-05-01T09:40:11.545Z,10.70
2019-05-01T09:41:11.523Z,9.90
2019-05-01T09:42:11.504Z,9.50
2019-05-01T09:43:11.484Z,8.70
2019-05-01T09:44:12.111Z,8.30
2019-05-01T09:45:11.443Z,6.90
2019-05-01T09:46:11.425Z,9.00
2019-05-01T09:47:11.405Z,9.10
2019-05-01T09:48:11.385Z,8.00
2019-05-01T09:49:14.193Z,8.10
2019-05-01T09:50:11.343Z,8.10
2019-05-01T09:51:11.324Z,8.10
2019-05-01T09:52:11.306Z,8.30
2019-05-01T09:53:11.286Z,8.50
2019-05-01T09:54:11.264Z,7.40
2019-05-01T09:55:11.243Z,7.90
2019-05-01T09:56:11.224Z,7.60
2019-05-01T09:57:11.204Z,7.00
2019-05-01T09:58:11.185Z,8.50
2019-05-01T09:59:12.500Z,7.80
2019-05-01T10:00:11.146Z,6.70
2019-05-01T10:01:11.126Z,6.70
2019-05-01T10:02:11.107Z,7.90
2019-05-01T10:03:13.106Z,6.30
2019-05-01T10:04:11.070Z,6.90
2019-05-01T10:05:11.047Z,6.40
2019-05-01T10:06:12.747Z,7.00
2019-05-01T10:07:11.010Z,7.50
2019-05-01T10:08:10.993Z,8.80
2019-05-01T10:09:11.950Z,8.10
2019-05-01T10:10:10.954Z,7.80
2019-05-01T10:11:10.935Z,7.60
2019-05-01T10:12:12.183Z,7.60
2019-05-01T10:13:10.898Z,9.30
2019-05-01T10:14:10.880Z,7.80
2019-05-01T10:15:10.863Z,6.70
2019-05-01T10:16:10.844Z,6.20
2019-05-01T10:17:13.439Z,6.60
2019-05-01T10:18:10.807Z,6.70
2019-05-01T10:19:10.788Z,6.70
2019-05-01T10:20:10.770Z,6.00
2019-05-01T10:21:10.751Z,6.30
2019-05-01T10:22:10.731Z,6.80
2019-05-01T10:23:12.954Z,7.80
2019-05-01T10:24:10.700Z,7.10
2019-05-01T10:25:12.397Z,5.40
2019-05-01T10:26:10.658Z,7.00
2019-05-01T10:27:10.637Z,6.60
2019-05-01T10:28:12.953Z,5.80
2019-05-01T10:29:10.601Z,6.70
2019-05-01T10:30:10.581Z,6.00
2019-05-01T10:31:12.016Z,7.50
2019-05-01T10:32:10.543Z,7.90
2019-05-01T10:33:10.524Z,6.20
2019-05-01T10:34:10.505Z,11.20
2019-05-01T10:35:14.243Z,10.00
2019-05-01T10:36:17.693Z,7.80
2019-05-01T10:37:10.449Z,7.50
2019-05-01T10:38:10.812Z,7.60
2019-05-01T10:39:10.416Z,7.30
2019-05-01T10:40:10.395Z,7.90
2019-05-01T10:41:10.656Z,5.20
2019-05-01T10:42:10.359Z,7.70
2019-05-01T10:43:10.341Z,7.20
2019-05-01T10:44:10.326Z,8.20
2019-05-01T10:45:10.306Z,7.70
2019-05-01T10:46:10.285Z,6.30
2019-05-01T10:47:10.273Z,6.60
2019-05-01T10:48:10.251Z,6.80
2019-05-01T10:49:10.233Z,5.00
2019-05-01T10:50:10.215Z,4.90
2019-05-01T10:51:10.198Z,5.20
2019-05-01T10:52:14.294Z,6.00
2019-05-01T10:53:10.163Z,5.60
2019-05-01T10:54:10.145Z,5.80
2019-05-01T10:55:10.130Z,5.10
2019-05-01T10:56:10.111Z,5.80
2019-05-01T10:57:12.816Z,9.30
2019-05-01T10:58:12.898Z,5.10
2019-05-01T10:59:10.059Z,5.30
2019-05-01T11:00:10.043Z,4.90
2019-05-01T11:01:10.024Z,6.90
2019-05-01T11:02:10.008Z,6.50
2019-05-01T11:03:09.989Z,8.00
2019-05-01T11:04:09.972Z,5.80
2019-05-01T11:05:09.952Z,7.20
2019-05-01T11:06:09.936Z,6.30
2019-05-01T11:07:09.918Z,5.40
2019-05-01T11:08:09.901Z,7.90
2019-05-01T11:09:09.883Z,6.80
2019-05-01T11:10:09.864Z,4.70
2019-05-01T11:11:09.851Z,6.30
2019-05-01T11:12:09.828Z,5.60
2019-05-01T11:13:09.811Z,6.70
2019-05-01T11:14:09.793Z,6.40
2019-05-01T11:15:09.780Z,8.20
2019-05-01T11:16:09.758Z,6.70
2019-05-01T11:17:09.741Z,6.40
2019-05-01T11:18:09.743Z,5.70
2019-05-01T11:19:09.705Z,6.00
2019-05-01T11:20:09.688Z,5.30
2019-05-01T11:21:09.671Z,6.80
2019-05-01T11:22:09.652Z,7.90
2019-05-01T11:23:09.640Z,6.20
2019-05-01T11:24:09.616Z,6.70
2019-05-01T11:25:09.598Z,6.40
2019-05-01T11:26:09.581Z,6.60
2019-05-01T11:27:09.569Z,5.90
2019-05-01T11:28:09.545Z,6.10
2019-05-01T11:29:09.527Z,8.00
2019-05-01T11:30:09.510Z,6.20
2019-05-01T11:31:09.492Z,7.20
2019-05-01T11:32:09.487Z,6.00
2019-05-01T11:33:09.455Z,6.10
2019-05-01T11:34:09.438Z,7.20
2019-05-01T11:35:09.419Z,5.40
2019-05-01T11:36:10.002Z,7.00
2019-05-01T11:37:09.382Z,5.90
2019-05-01T11:38:09.365Z,7.40
2019-05-01T11:39:09.348Z,6.10
2019-05-01T11:40:09.329Z,5.60
2019-05-01T11:41:09.310Z,5.60
2019-05-01T11:42:09.293Z,6.40
2019-05-01T11:43:09.275Z,6.80
2019-05-01T11:44:09.256Z,6.80
2019-05-01T11:45:09.243Z,5.50
2019-05-01T11:46:09.219Z,6.00
2019-05-01T11:47:09.202Z,5.60
2019-05-01T11:48:09.185Z,7.40
2019-05-01T11:49:09.165Z,6.10
2019-05-01T11:50:09.147Z,5.50
2019-05-01T11:51:09.134Z,6.40
2019-05-01T11:52:09.111Z,6.10
2019-05-01T11:53:09.094Z,5.60
2019-05-01T11:54:09.073Z,5.90
2019-05-01T11:55:09.058Z,5.60
2019-05-01T11:56:09.037Z,5.70
2019-05-01T11:57:09.018Z,7.80
2019-05-01T11:58:08.999Z,5.50
2019-05-01T11:59:08.982Z,6.00
2019-05-01T12:00:08.963Z,5.90
2019-05-01T12:01:08.944Z,5.70
2019-05-01T12:02:08.927Z,6.10
2019-05-01T12:03:08.910Z,5.20
2019-05-01T12:04:08.889Z,5.70
2019-05-01T12:05:08.870Z,5.60
2019-05-01T12:06:21.850Z,6.70
2019-05-01T12:07:08.836Z,7.00
2019-05-01T12:08:08.830Z,6.10
2019-05-01T12:09:08.803Z,8.40
2019-05-01T12:10:08.779Z,7.50
2019-05-01T12:11:08.760Z,6.00
2019-05-01T12:12:08.742Z,5.20
2019-05-01T12:13:08.723Z,5.60
2019-05-01T12:14:08.705Z,6.70
2019-05-01T12:15:08.687Z,5.00
2019-05-01T12:16:08.669Z,6.00
2019-05-01T12:17:08.653Z,6.70
2019-05-01T12:18:08.633Z,6.20
2019-05-01T12:19:08.614Z,6.70
2019-05-01T12:20:08.595Z,7.30
2019-05-01T12:21:08.578Z,6.50
2019-05-01T12:22:08.561Z,5.60
2019-05-01T12:23:08.546Z,5.60
2019-05-01T12:24:08.526Z,4.80
2019-05-01T12:25:08.511Z,5.20
2019-05-01T12:26:08.487Z,6.20
2019-05-01T12:27:08.473Z,5.80
2019-05-01T12:28:08.451Z,4.40
2019-05-01T12:29:08.433Z,5.10
2019-05-01T12:30:08.415Z,6.50
2019-05-01T12:31:08.397Z,5.30
2019-05-01T12:32:08.379Z,6.30
2019-05-01T12:33:08.360Z,5.90
2019-05-01T12:34:08.344Z,6.20
2019-05-01T12:35:08.326Z,5.00
2019-05-01T12:36:08.305Z,4.30
2019-05-01T12:37:08.287Z,6.00
2019-05-01T12:38:08.268Z,5.50
2019-05-01T12:39:08.251Z,5.50
2019-05-01T12:40:08.233Z,4.20
2019-05-01T12:41:08.214Z,4.80
2019-05-01T12:42:08.192Z,6.80
2019-05-01T12:43:08.175Z,6.00
2019-05-01T12:44:08.157Z,4.60
2019-05-01T12:45:08.138Z,4.50
2019-05-01T12:46:08.120Z,5.30
2019-05-01T12:47:08.101Z,6.60
2019-05-01T12:48:08.082Z,7.60
2019-05-01T12:49:08.062Z,4.80
2019-05-01T12:50:08.044Z,5.20
2019-05-01T12:51:08.025Z,6.90
2019-05-01T12:52:10.632Z,5.50
2019-05-01T12:53:07.988Z,5.60
2019-05-01T12:54:07.969Z,5.80
2019-05-01T12:55:07.951Z,4.00
2019-05-01T12:56:07.932Z,4.90
2019-05-01T12:57:07.915Z,4.10
2019-05-01T12:58:07.896Z,5.60
2019-05-01T12:59:07.880Z,5.40